sensor_id;sensor_type;location;lat;lon;timestamp;P1;durP1;ratioP1;P2;durP2;ratioP2
23472;SDS011;11909;52.516;13.564;2022-10-18T00:01:27;14.05;;;9.55;;
23472;SDS011;11909;52.516;13.564;2022-10-18T00:03:54;13.05;;;10.30;;
23472;SDS011;11909;52.516;13.564;2022-10-18T00:06:20;13.50;;;10.05;;
23472;SDS011;11909;52.516;13.564;2022-10-18T00:08:47;11.98;;;9.98;;
23472;SDS011;11909;52.516;13.564;2022-10-18T00:11:13;14.48;;;10.50;;
23472;SDS011;11909;52.516;13.564;2022-10-18T00:13:41;13.60;;;10.70;;
23472;SDS011;11909;52.516;13.564;2022-10-18T00:16:09;17.25;;;11.77;;
23472;SDS011;11909;52.516;13.564;2022-10-18T00:18:37;15.97;;;12.23;;
23472;SDS011;11909;52.516;13.564;2022-10-18T00:21:04;17.58;;;12.63;;
23472;SDS011;11909;52.516;13.564;2022-10-18T00:23:33;18.88;;;11.82;;
23472;SDS011;11909;52.516;13.564;2022-10-18T00:26:01;14.65;;;11.35;;
23472;SDS011;11909;52.516;13.564;2022-10-18T00:28:30;13.93;;;11.68;;
23472;SDS011;11909;52.516;13.564;2022-10-18T00:31:04;16.75;;;11.32;;
23472;SDS011;11909;52.516;13.564;2022-10-18T00:33:34;13.15;;;10.15;;
23472;SDS011;11909;52.516;13.564;2022-10-18T00:36:01;15.10;;;10.65;;
23472;SDS011;11909;52.516;13.564;2022-10-18T00:38:27;12.27;;;10.05;;
23472;SDS011;11909;52.516;13.564;2022-10-18T00:40:54;12.93;;;10.25;;
23472;SDS011;11909;52.516;13.564;2022-10-18T00:43:20;14.38;;;12.50;;
23472;SDS011;11909;52.516;13.564;2022-10-18T00:45:46;17.88;;;12.18;;
23472;SDS011;11909;52.516;13.564;2022-10-18T00:48:14;15.57;;;11.68;;
23472;SDS011;11909;52.516;13.564;2022-10-18T00:50:43;15.25;;;11.85;;
23472;SDS011;11909;52.516;13.564;2022-10-18T00:53:11;18.58;;;13.82;;
23472;SDS011;11909;52.516;13.564;2022-10-18T00:55:41;18.02;;;12.98;;
23472;SDS011;11909;52.516;13.564;2022-10-18T00:58:07;18.35;;;12.20;;
23472;SDS011;11909;52.516;13.564;2022-10-18T01:00:36;15.32;;;12.13;;
23472;SDS011;11909;52.516;13.564;2022-10-18T01:03:05;21.15;;;12.30;;
23472;SDS011;11909;52.516;13.564;2022-10-18T01:05:40;18.05;;;12.60;;
23472;SDS011;11909;52.516;13.564;2022-10-18T01:08:18;17.42;;;12.93;;
23472;SDS011;11909;52.516;13.564;2022-10-18T01:10:57;15.93;;;12.73;;
23472;SDS011;11909;52.516;13.564;2022-10-18T01:13:42;18.35;;;12.77;;
23472;SDS011;11909;52.516;13.564;2022-10-18T01:16:27;17.05;;;12.82;;
23472;SDS011;11909;52.516;13.564;2022-10-18T01:19:01;15.93;;;12.40;;
23472;SDS011;11909;52.516;13.564;2022-10-18T01:21:36;16.67;;;12.63;;
23472;SDS011;11909;52.516;13.564;2022-10-18T01:24:23;19.38;;;13.77;;
23472;SDS011;11909;52.516;13.564;2022-10-18T01:32:54;15.38;;;11.52;;
23472;SDS011;11909;52.516;13.564;2022-10-18T01:35:29;13.93;;;11.95;;
23472;SDS011;11909;52.516;13.564;2022-10-18T01:38:00;16.80;;;11.95;;
23472;SDS011;11909;52.516;13.564;2022-10-18T01:40:32;13.80;;;10.52;;
23472;SDS011;11909;52.516;13.564;2022-10-18T01:43:01;13.48;;;11.35;;
23472;SDS011;11909;52.516;13.564;2022-10-18T01:45:30;17.45;;;11.52;;
23472;SDS011;11909;52.516;13.564;2022-10-18T01:47:58;18.67;;;12.48;;
23472;SDS011;11909;52.516;13.564;2022-10-18T01:50:29;16.35;;;12.00;;
23472;SDS011;11909;52.516;13.564;2022-10-18T01:52:58;15.98;;;11.15;;
23472;SDS011;11909;52.516;13.564;2022-10-18T01:55:25;16.27;;;11.93;;
23472;SDS011;11909;52.516;13.564;2022-10-18T01:57:58;15.57;;;12.13;;
23472;SDS011;11909;52.516;13.564;2022-10-18T02:00:34;13.18;;;10.35;;
23472;SDS011;11909;52.516;13.564;2022-10-18T02:03:05;17.83;;;10.82;;
23472;SDS011;11909;52.516;13.564;2022-10-18T02:05:42;12.10;;;10.82;;
23472;SDS011;11909;52.516;13.564;2022-10-18T02:08:15;13.85;;;10.73;;
23472;SDS011;11909;52.516;13.564;2022-10-18T02:10:49;14.73;;;11.05;;
23472;SDS011;11909;52.516;13.564;2022-10-18T02:13:20;12.48;;;9.70;;
23472;SDS011;11909;52.516;13.564;2022-10-18T02:15:50;12.75;;;9.43;;
23472;SDS011;11909;52.516;13.564;2022-10-18T02:18:22;13.18;;;10.52;;
23472;SDS011;11909;52.516;13.564;2022-10-18T02:20:52;17.70;;;11.75;;
23472;SDS011;11909;52.516;13.564;2022-10-18T02:23:21;16.02;;;12.77;;
23472;SDS011;11909;52.516;13.564;2022-10-18T02:25:50;16.25;;;11.60;;
23472;SDS011;11909;52.516;13.564;2022-10-18T02:28:18;13.27;;;11.88;;
23472;SDS011;11909;52.516;13.564;2022-10-18T02:30:46;14.40;;;12.68;;
23472;SDS011;11909;52.516;13.564;2022-10-18T02:33:24;15.88;;;11.75;;
23472;SDS011;11909;52.516;13.564;2022-10-18T02:35:58;12.52;;;11.13;;
23472;SDS011;11909;52.516;13.564;2022-10-18T02:38:28;16.90;;;12.48;;
23472;SDS011;11909;52.516;13.564;2022-10-18T02:40:57;13.82;;;11.23;;
23472;SDS011;11909;52.516;13.564;2022-10-18T02:43:23;15.27;;;12.52;;
23472;SDS011;11909;52.516;13.564;2022-10-18T02:45:51;14.35;;;12.85;;
23472;SDS011;11909;52.516;13.564;2022-10-18T02:48:18;20.63;;;12.75;;
23472;SDS011;11909;52.516;13.564;2022-10-18T02:50:45;16.58;;;12.25;;
23472;SDS011;11909;52.516;13.564;2022-10-18T02:53:11;17.17;;;12.02;;
23472;SDS011;11909;52.516;13.564;2022-10-18T02:55:37;15.05;;;11.02;;
23472;SDS011;11909;52.516;13.564;2022-10-18T02:58:04;14.98;;;11.23;;
23472;SDS011;11909;52.516;13.564;2022-10-18T03:00:30;11.98;;;10.45;;
23472;SDS011;11909;52.516;13.564;2022-10-18T03:02:58;13.38;;;11.18;;
23472;SDS011;11909;52.516;13.564;2022-10-18T03:05:25;13.68;;;10.35;;
23472;SDS011;11909;52.516;13.564;2022-10-18T03:07:51;12.63;;;10.50;;
23472;SDS011;11909;52.516;13.564;2022-10-18T03:10:17;15.65;;;11.07;;
23472;SDS011;11909;52.516;13.564;2022-10-18T03:12:44;15.02;;;11.52;;
23472;SDS011;11909;52.516;13.564;2022-10-18T03:15:10;15.82;;;12.13;;
23472;SDS011;11909;52.516;13.564;2022-10-18T03:17:37;17.77;;;11.95;;
23472;SDS011;11909;52.516;13.564;2022-10-18T03:20:05;13.75;;;11.35;;
23472;SDS011;11909;52.516;13.564;2022-10-18T03:22:32;13.88;;;11.38;;
23472;SDS011;11909;52.516;13.564;2022-10-18T03:24:58;13.63;;;11.93;;
23472;SDS011;11909;52.516;13.564;2022-10-18T03:27:25;16.42;;;13.48;;
23472;SDS011;11909;52.516;13.564;2022-10-18T03:29:51;15.65;;;13.05;;
23472;SDS011;11909;52.516;13.564;2022-10-18T03:32:18;15.95;;;12.98;;
23472;SDS011;11909;52.516;13.564;2022-10-18T03:34:44;15.52;;;12.63;;
23472;SDS011;11909;52.516;13.564;2022-10-18T03:37:12;18.10;;;12.77;;
23472;SDS011;11909;52.516;13.564;2022-10-18T03:39:38;14.95;;;12.27;;
23472;SDS011;11909;52.516;13.564;2022-10-18T03:42:05;14.27;;;11.75;;
23472;SDS011;11909;52.516;13.564;2022-10-18T03:44:31;14.13;;;11.27;;
23472;SDS011;11909;52.516;13.564;2022-10-18T03:46:58;15.60;;;12.23;;
23472;SDS011;11909;52.516;13.564;2022-10-18T03:49:24;18.42;;;12.65;;
23472;SDS011;11909;52.516;13.564;2022-10-18T03:51:50;15.98;;;11.20;;
23472;SDS011;11909;52.516;13.564;2022-10-18T03:54:19;15.38;;;12.85;;
23472;SDS011;11909;52.516;13.564;2022-10-18T03:56:45;14.95;;;11.98;;
23472;SDS011;11909;52.516;13.564;2022-10-18T03:59:12;13.77;;;11.43;;
23472;SDS011;11909;52.516;13.564;2022-10-18T04:01:40;16.65;;;12.90;;
23472;SDS011;11909;52.516;13.564;2022-10-18T04:04:07;19.17;;;14.02;;
23472;SDS011;11909;52.516;13.564;2022-10-18T04:06:33;18.58;;;13.07;;
23472;SDS011;11909;52.516;13.564;2022-10-18T04:08:59;17.55;;;12.10;;
23472;SDS011;11909;52.516;13.564;2022-10-18T04:11:27;15.65;;;13.02;;
23472;SDS011;11909;52.516;13.564;2022-10-18T04:13:54;15.57;;;11.88;;
23472;SDS011;11909;52.516;13.564;2022-10-18T04:16:20;16.80;;;12.25;;
23472;SDS011;11909;52.516;13.564;2022-10-18T04:18:47;16.08;;;12.57;;
23472;SDS011;11909;52.516;13.564;2022-10-18T04:21:13;18.30;;;13.65;;
23472;SDS011;11909;52.516;13.564;2022-10-18T04:23:40;17.73;;;13.18;;
23472;SDS011;11909;52.516;13.564;2022-10-18T04:26:06;13.35;;;12.00;;
23472;SDS011;11909;52.516;13.564;2022-10-18T04:28:34;15.10;;;12.27;;
23472;SDS011;11909;52.516;13.564;2022-10-18T04:31:04;15.65;;;13.35;;
23472;SDS011;11909;52.516;13.564;2022-10-18T04:33:30;17.48;;;12.77;;
23472;SDS011;11909;52.516;13.564;2022-10-18T04:35:57;18.25;;;12.45;;
23472;SDS011;11909;52.516;13.564;2022-10-18T04:38:23;16.20;;;14.13;;
23472;SDS011;11909;52.516;13.564;2022-10-18T04:40:50;16.23;;;12.25;;
23472;SDS011;11909;52.516;13.564;2022-10-18T04:43:16;13.75;;;12.32;;
23472;SDS011;11909;52.516;13.564;2022-10-18T04:45:44;14.45;;;12.85;;
23472;SDS011;11909;52.516;13.564;2022-10-18T04:48:12;15.13;;;13.52;;
23472;SDS011;11909;52.516;13.564;2022-10-18T04:50:38;16.65;;;12.60;;
23472;SDS011;11909;52.516;13.564;2022-10-18T04:53:05;15.82;;;12.77;;
23472;SDS011;11909;52.516;13.564;2022-10-18T04:55:31;15.57;;;12.00;;
23472;SDS011;11909;52.516;13.564;2022-10-18T04:57:57;16.40;;;12.63;;
23472;SDS011;11909;52.516;13.564;2022-10-18T05:00:24;13.27;;;10.70;;
23472;SDS011;11909;52.516;13.564;2022-10-18T05:02:55;13.52;;;11.50;;
23472;SDS011;11909;52.516;13.564;2022-10-18T05:05:22;14.68;;;12.27;;
23472;SDS011;11909;52.516;13.564;2022-10-18T05:07:49;16.10;;;11.70;;
23472;SDS011;11909;52.516;13.564;2022-10-18T05:10:15;15.35;;;11.63;;
23472;SDS011;11909;52.516;13.564;2022-10-18T05:12:42;18.10;;;11.90;;
23472;SDS011;11909;52.516;13.564;2022-10-18T05:15:09;13.25;;;10.20;;
23472;SDS011;11909;52.516;13.564;2022-10-18T05:17:35;11.75;;;10.00;;
23472;SDS011;11909;52.516;13.564;2022-10-18T05:20:03;9.55;;;8.15;;
23472;SDS011;11909;52.516;13.564;2022-10-18T05:22:30;10.68;;;8.90;;
23472;SDS011;11909;52.516;13.564;2022-10-18T05:24:57;11.10;;;8.48;;
23472;SDS011;11909;52.516;13.564;2022-10-18T05:27:23;10.73;;;7.82;;
23472;SDS011;11909;52.516;13.564;2022-10-18T05:29:50;9.07;;;6.78;;
23472;SDS011;11909;52.516;13.564;2022-10-18T05:32:16;10.15;;;7.65;;
23472;SDS011;11909;52.516;13.564;2022-10-18T05:34:42;6.97;;;6.28;;
23472;SDS011;11909;52.516;13.564;2022-10-18T05:37:10;7.60;;;6.68;;
23472;SDS011;11909;52.516;13.564;2022-10-18T05:39:37;8.98;;;6.82;;
23472;SDS011;11909;52.516;13.564;2022-10-18T05:42:04;7.15;;;5.97;;
23472;SDS011;11909;52.516;13.564;2022-10-18T05:44:31;9.38;;;7.60;;
23472;SDS011;11909;52.516;13.564;2022-10-18T05:46:57;11.85;;;7.90;;
23472;SDS011;11909;52.516;13.564;2022-10-18T05:49:24;12.05;;;8.98;;
23472;SDS011;11909;52.516;13.564;2022-10-18T05:51:50;11.55;;;8.10;;
23472;SDS011;11909;52.516;13.564;2022-10-18T05:54:18;7.25;;;6.53;;
23472;SDS011;11909;52.516;13.564;2022-10-18T05:56:45;8.68;;;6.97;;
23472;SDS011;11909;52.516;13.564;2022-10-18T05:59:11;13.02;;;10.52;;
23472;SDS011;11909;52.516;13.564;2022-10-18T06:01:38;10.50;;;8.90;;
23472;SDS011;11909;52.516;13.564;2022-10-18T06:04:06;13.20;;;9.55;;
23472;SDS011;11909;52.516;13.564;2022-10-18T06:06:34;12.00;;;9.20;;
23472;SDS011;11909;52.516;13.564;2022-10-18T06:09:01;11.70;;;9.32;;
23472;SDS011;11909;52.516;13.564;2022-10-18T06:11:30;12.35;;;10.13;;
23472;SDS011;11909;52.516;13.564;2022-10-18T06:13:57;14.52;;;10.20;;
23472;SDS011;11909;52.516;13.564;2022-10-18T06:16:24;14.50;;;10.45;;
23472;SDS011;11909;52.516;13.564;2022-10-18T06:18:51;8.35;;;7.47;;
23472;SDS011;11909;52.516;13.564;2022-10-18T06:21:19;11.70;;;8.93;;
23472;SDS011;11909;52.516;13.564;2022-10-18T06:23:47;15.15;;;9.40;;
23472;SDS011;11909;52.516;13.564;2022-10-18T06:26:14;10.48;;;9.10;;
23472;SDS011;11909;52.516;13.564;2022-10-18T06:28:42;17.67;;;9.68;;
23472;SDS011;11909;52.516;13.564;2022-10-18T06:31:09;13.35;;;9.88;;
23472;SDS011;11909;52.516;13.564;2022-10-18T06:33:36;15.18;;;10.65;;
23472;SDS011;11909;52.516;13.564;2022-10-18T06:36:03;11.38;;;10.15;;
23472;SDS011;11909;52.516;13.564;2022-10-18T06:38:31;12.77;;;11.25;;
23472;SDS011;11909;52.516;13.564;2022-10-18T06:40:58;12.77;;;10.32;;
23472;SDS011;11909;52.516;13.564;2022-10-18T06:43:25;10.25;;;8.52;;
23472;SDS011;11909;52.516;13.564;2022-10-18T06:45:53;12.68;;;10.55;;
23472;SDS011;11909;52.516;13.564;2022-10-18T06:48:20;15.35;;;10.52;;
23472;SDS011;11909;52.516;13.564;2022-10-18T06:50:50;12.32;;;9.63;;
23472;SDS011;11909;52.516;13.564;2022-10-18T06:53:18;15.18;;;11.45;;
23472;SDS011;11909;52.516;13.564;2022-10-18T06:55:44;11.48;;;9.25;;
23472;SDS011;11909;52.516;13.564;2022-10-18T06:58:11;14.27;;;9.82;;
23472;SDS011;11909;52.516;13.564;2022-10-18T07:00:37;13.30;;;10.82;;
23472;SDS011;11909;52.516;13.564;2022-10-18T07:03:05;19.08;;;11.25;;
23472;SDS011;11909;52.516;13.564;2022-10-18T07:05:32;22.20;;;13.98;;
23472;SDS011;11909;52.516;13.564;2022-10-18T07:07:58;12.80;;;10.52;;
23472;SDS011;11909;52.516;13.564;2022-10-18T07:10:25;15.13;;;11.23;;
23472;SDS011;11909;52.516;13.564;2022-10-18T07:12:52;20.58;;;11.57;;
23472;SDS011;11909;52.516;13.564;2022-10-18T07:15:18;18.77;;;13.95;;
23472;SDS011;11909;52.516;13.564;2022-10-18T07:17:47;16.52;;;12.18;;
23472;SDS011;11909;52.516;13.564;2022-10-18T07:20:15;12.57;;;11.02;;
23472;SDS011;11909;52.516;13.564;2022-10-18T07:22:42;17.05;;;12.15;;
23472;SDS011;11909;52.516;13.564;2022-10-18T07:25:09;13.82;;;10.95;;
23472;SDS011;11909;52.516;13.564;2022-10-18T07:27:35;14.82;;;11.93;;
23472;SDS011;11909;52.516;13.564;2022-10-18T07:30:03;18.63;;;11.90;;
23472;SDS011;11909;52.516;13.564;2022-10-18T07:32:30;19.35;;;13.05;;
23472;SDS011;11909;52.516;13.564;2022-10-18T07:34:56;19.17;;;13.00;;
23472;SDS011;11909;52.516;13.564;2022-10-18T07:37:24;18.05;;;13.10;;
23472;SDS011;11909;52.516;13.564;2022-10-18T07:39:50;16.90;;;13.35;;
23472;SDS011;11909;52.516;13.564;2022-10-18T07:42:17;17.60;;;13.40;;
23472;SDS011;11909;52.516;13.564;2022-10-18T07:44:43;16.30;;;12.70;;
23472;SDS011;11909;52.516;13.564;2022-10-18T07:47:09;19.60;;;13.50;;
23472;SDS011;11909;52.516;13.564;2022-10-18T07:49:36;16.75;;;12.65;;
23472;SDS011;11909;52.516;13.564;2022-10-18T07:52:03;18.95;;;13.38;;
23472;SDS011;11909;52.516;13.564;2022-10-18T07:54:30;17.05;;;13.60;;
23472;SDS011;11909;52.516;13.564;2022-10-18T07:56:57;17.98;;;13.55;;
23472;SDS011;11909;52.516;13.564;2022-10-18T07:59:23;17.80;;;12.45;;
23472;SDS011;11909;52.516;13.564;2022-10-18T08:01:50;17.58;;;13.68;;
23472;SDS011;11909;52.516;13.564;2022-10-18T08:04:16;15.40;;;12.10;;
23472;SDS011;11909;52.516;13.564;2022-10-18T08:06:43;17.67;;;13.18;;
23472;SDS011;11909;52.516;13.564;2022-10-18T08:09:09;14.07;;;11.60;;
23472;SDS011;11909;52.516;13.564;2022-10-18T08:11:37;18.17;;;13.18;;
23472;SDS011;11909;52.516;13.564;2022-10-18T08:14:03;16.70;;;11.75;;
23472;SDS011;11909;52.516;13.564;2022-10-18T08:16:30;16.85;;;12.77;;
23472;SDS011;11909;52.516;13.564;2022-10-18T08:18:56;14.25;;;11.68;;
23472;SDS011;11909;52.516;13.564;2022-10-18T08:21:23;17.80;;;11.93;;
23472;SDS011;11909;52.516;13.564;2022-10-18T08:23:50;19.92;;;13.57;;
23472;SDS011;11909;52.516;13.564;2022-10-18T08:26:18;14.43;;;11.15;;
23472;SDS011;11909;52.516;13.564;2022-10-18T08:28:48;15.13;;;12.02;;
23472;SDS011;11909;52.516;13.564;2022-10-18T08:31:16;16.85;;;11.90;;
23472;SDS011;11909;52.516;13.564;2022-10-18T08:33:43;15.90;;;10.50;;
23472;SDS011;11909;52.516;13.564;2022-10-18T08:36:11;15.80;;;11.50;;
23472;SDS011;11909;52.516;13.564;2022-10-18T08:38:39;16.45;;;12.20;;
23472;SDS011;11909;52.516;13.564;2022-10-18T08:41:14;14.32;;;11.05;;
23472;SDS011;11909;52.516;13.564;2022-10-18T08:43:54;18.00;;;11.80;;
23472;SDS011;11909;52.516;13.564;2022-10-18T08:46:23;18.25;;;12.57;;
23472;SDS011;11909;52.516;13.564;2022-10-18T08:48:50;19.90;;;12.57;;
23472;SDS011;11909;52.516;13.564;2022-10-18T08:51:21;18.83;;;12.37;;
23472;SDS011;11909;52.516;13.564;2022-10-18T08:53:54;16.25;;;12.77;;
23472;SDS011;11909;52.516;13.564;2022-10-18T08:56:25;17.13;;;11.80;;
23472;SDS011;11909;52.516;13.564;2022-10-18T08:58:53;26.75;;;17.58;;
23472;SDS011;11909;52.516;13.564;2022-10-18T09:01:23;32.05;;;22.35;;
23472;SDS011;11909;52.516;13.564;2022-10-18T09:04:00;20.77;;;15.50;;
23472;SDS011;11909;52.516;13.564;2022-10-18T09:06:41;16.40;;;13.23;;
23472;SDS011;11909;52.516;13.564;2022-10-18T09:09:19;16.40;;;11.82;;
23472;SDS011;11909;52.516;13.564;2022-10-18T09:11:57;20.92;;;14.50;;
23472;SDS011;11909;52.516;13.564;2022-10-18T09:14:38;20.55;;;12.48;;
23472;SDS011;11909;52.516;13.564;2022-10-18T09:17:18;15.57;;;11.23;;
23472;SDS011;11909;52.516;13.564;2022-10-18T09:19:57;16.45;;;12.35;;
23472;SDS011;11909;52.516;13.564;2022-10-18T09:22:51;16.95;;;11.95;;
23472;SDS011;11909;52.516;13.564;2022-10-18T09:25:20;15.90;;;10.75;;
23472;SDS011;11909;52.516;13.564;2022-10-18T09:27:52;15.48;;;10.27;;
23472;SDS011;11909;52.516;13.564;2022-10-18T09:33:14;15.65;;;10.68;;
23472;SDS011;11909;52.516;13.564;2022-10-18T09:35:48;12.93;;;9.82;;
23472;SDS011;11909;52.516;13.564;2022-10-18T09:38:20;14.50;;;10.05;;
23472;SDS011;11909;52.516;13.564;2022-10-18T09:40:52;17.10;;;8.35;;
23472;SDS011;11909;52.516;13.564;2022-10-18T09:43:21;11.77;;;7.18;;
23472;SDS011;11909;52.516;13.564;2022-10-18T09:45:52;8.87;;;7.33;;
23472;SDS011;11909;52.516;13.564;2022-10-18T09:48:21;11.73;;;7.17;;
23472;SDS011;11909;52.516;13.564;2022-10-18T09:50:53;12.48;;;8.13;;
23472;SDS011;11909;52.516;13.564;2022-10-18T09:53:26;12.20;;;8.15;;
23472;SDS011;11909;52.516;13.564;2022-10-18T09:56:02;10.02;;;8.25;;
23472;SDS011;11909;52.516;13.564;2022-10-18T09:58:37;11.00;;;7.57;;
23472;SDS011;11909;52.516;13.564;2022-10-18T10:01:12;14.00;;;8.57;;
23472;SDS011;11909;52.516;13.564;2022-10-18T10:03:40;10.52;;;7.70;;
23472;SDS011;11909;52.516;13.564;2022-10-18T10:06:21;12.02;;;8.05;;
23472;SDS011;11909;52.516;13.564;2022-10-18T10:08:52;10.55;;;7.72;;
23472;SDS011;11909;52.516;13.564;2022-10-18T10:11:34;12.25;;;7.88;;
23472;SDS011;11909;52.516;13.564;2022-10-18T10:14:09;9.35;;;7.00;;
23472;SDS011;11909;52.516;13.564;2022-10-18T10:16:42;13.55;;;7.80;;
23472;SDS011;11909;52.516;13.564;2022-10-18T10:19:17;13.65;;;7.47;;
23472;SDS011;11909;52.516;13.564;2022-10-18T10:21:46;9.43;;;7.30;;
23472;SDS011;11909;52.516;13.564;2022-10-18T10:24:17;13.40;;;8.27;;
23472;SDS011;11909;52.516;13.564;2022-10-18T10:26:49;13.60;;;7.85;;
23472;SDS011;11909;52.516;13.564;2022-10-18T10:32:22;11.13;;;7.47;;
23472;SDS011;11909;52.516;13.564;2022-10-18T10:34:51;9.45;;;6.85;;
23472;SDS011;11909;52.516;13.564;2022-10-18T10:37:34;9.32;;;7.72;;
23472;SDS011;11909;52.516;13.564;2022-10-18T10:40:05;12.93;;;7.95;;
23472;SDS011;11909;52.516;13.564;2022-10-18T10:42:57;13.07;;;8.80;;
23472;SDS011;11909;52.516;13.564;2022-10-18T10:45:39;12.52;;;8.30;;
23472;SDS011;11909;52.516;13.564;2022-10-18T10:48:19;8.50;;;7.53;;
23472;SDS011;11909;52.516;13.564;2022-10-18T10:50:48;9.38;;;7.55;;
23472;SDS011;11909;52.516;13.564;2022-10-18T10:53:23;14.80;;;8.93;;
23472;SDS011;11909;52.516;13.564;2022-10-18T10:55:53;10.68;;;8.05;;
23472;SDS011;11909;52.516;13.564;2022-10-18T10:58:21;14.57;;;8.88;;
23472;SDS011;11909;52.516;13.564;2022-10-18T11:00:48;11.10;;;7.25;;
23472;SDS011;11909;52.516;13.564;2022-10-18T11:03:16;12.90;;;9.10;;
23472;SDS011;11909;52.516;13.564;2022-10-18T11:05:46;10.30;;;8.18;;
23472;SDS011;11909;52.516;13.564;2022-10-18T11:08:19;14.52;;;8.55;;
23472;SDS011;11909;52.516;13.564;2022-10-18T11:10:59;11.52;;;8.48;;
23472;SDS011;11909;52.516;13.564;2022-10-18T11:13:42;13.57;;;8.63;;
23472;SDS011;11909;52.516;13.564;2022-10-18T11:16:15;12.75;;;9.85;;
23472;SDS011;11909;52.516;13.564;2022-10-18T11:18:48;13.60;;;9.55;;
23472;SDS011;11909;52.516;13.564;2022-10-18T11:21:19;11.55;;;9.40;;
23472;SDS011;11909;52.516;13.564;2022-10-18T11:23:48;10.35;;;8.02;;
23472;SDS011;11909;52.516;13.564;2022-10-18T11:26:22;12.85;;;9.30;;
23472;SDS011;11909;52.516;13.564;2022-10-18T11:29:10;13.27;;;8.93;;
23472;SDS011;11909;52.516;13.564;2022-10-18T11:31:47;11.93;;;9.57;;
23472;SDS011;11909;52.516;13.564;2022-10-18T11:34:28;12.23;;;9.20;;
23472;SDS011;11909;52.516;13.564;2022-10-18T11:37:07;12.77;;;10.02;;
23472;SDS011;11909;52.516;13.564;2022-10-18T11:39:48;9.18;;;7.47;;
23472;SDS011;11909;52.516;13.564;2022-10-18T11:42:23;12.70;;;9.05;;
23472;SDS011;11909;52.516;13.564;2022-10-18T11:45:00;12.00;;;8.63;;
23472;SDS011;11909;52.516;13.564;2022-10-18T11:50:16;11.15;;;8.80;;
23472;SDS011;11909;52.516;13.564;2022-10-18T11:52:53;10.93;;;9.15;;
23472;SDS011;11909;52.516;13.564;2022-10-18T11:55:33;13.77;;;10.15;;
23472;SDS011;11909;52.516;13.564;2022-10-18T11:58:16;13.05;;;10.43;;
23472;SDS011;11909;52.516;13.564;2022-10-18T12:00:54;13.23;;;10.07;;
23472;SDS011;11909;52.516;13.564;2022-10-18T12:03:28;11.43;;;9.68;;
23472;SDS011;11909;52.516;13.564;2022-10-18T12:06:01;11.68;;;9.43;;
23472;SDS011;11909;52.516;13.564;2022-10-18T12:08:33;11.43;;;8.77;;
23472;SDS011;11909;52.516;13.564;2022-10-18T12:11:05;12.10;;;9.60;;
23472;SDS011;11909;52.516;13.564;2022-10-18T12:13:36;13.88;;;9.15;;
23472;SDS011;11909;52.516;13.564;2022-10-18T12:16:06;10.85;;;8.82;;
23472;SDS011;11909;52.516;13.564;2022-10-18T12:18:34;9.82;;;7.65;;
23472;SDS011;11909;52.516;13.564;2022-10-18T12:21:02;10.02;;;8.65;;
23472;SDS011;11909;52.516;13.564;2022-10-18T12:23:38;12.48;;;9.70;;
23472;SDS011;11909;52.516;13.564;2022-10-18T12:26:10;13.13;;;9.77;;
23472;SDS011;11909;52.516;13.564;2022-10-18T12:28:41;11.48;;;9.57;;
23472;SDS011;11909;52.516;13.564;2022-10-18T12:31:16;13.65;;;9.55;;
23472;SDS011;11909;52.516;13.564;2022-10-18T12:33:48;12.35;;;10.77;;
23472;SDS011;11909;52.516;13.564;2022-10-18T12:36:21;16.42;;;11.32;;
23472;SDS011;11909;52.516;13.564;2022-10-18T12:39:02;12.10;;;9.93;;
23472;SDS011;11909;52.516;13.564;2022-10-18T12:41:32;13.55;;;11.00;;
23472;SDS011;11909;52.516;13.564;2022-10-18T12:44:02;14.40;;;11.25;;
23472;SDS011;11909;52.516;13.564;2022-10-18T12:46:42;15.50;;;12.13;;
23472;SDS011;11909;52.516;13.564;2022-10-18T12:49:10;15.85;;;11.30;;
23472;SDS011;11909;52.516;13.564;2022-10-18T12:51:48;14.18;;;11.40;;
23472;SDS011;11909;52.516;13.564;2022-10-18T12:54:17;16.00;;;12.10;;
23472;SDS011;11909;52.516;13.564;2022-10-18T12:56:48;15.77;;;10.82;;
23472;SDS011;11909;52.516;13.564;2022-10-18T13:02:20;16.67;;;10.70;;
23472;SDS011;11909;52.516;13.564;2022-10-18T13:04:52;12.93;;;10.27;;
23472;SDS011;11909;52.516;13.564;2022-10-18T13:07:31;11.88;;;9.98;;
23472;SDS011;11909;52.516;13.564;2022-10-18T13:16:03;13.27;;;10.48;;
23472;SDS011;11909;52.516;13.564;2022-10-18T13:18:39;13.13;;;10.60;;
23472;SDS011;11909;52.516;13.564;2022-10-18T13:21:16;13.43;;;10.77;;
23472;SDS011;11909;52.516;13.564;2022-10-18T13:23:54;15.40;;;10.45;;
23472;SDS011;11909;52.516;13.564;2022-10-18T13:26:35;11.35;;;9.93;;
23472;SDS011;11909;52.516;13.564;2022-10-18T13:29:16;15.48;;;9.93;;
23472;SDS011;11909;52.516;13.564;2022-10-18T13:31:57;11.55;;;10.18;;
23472;SDS011;11909;52.516;13.564;2022-10-18T13:34:29;13.25;;;10.15;;
23472;SDS011;11909;52.516;13.564;2022-10-18T13:36:59;13.50;;;11.10;;
23472;SDS011;11909;52.516;13.564;2022-10-18T13:39:28;13.02;;;10.02;;
23472;SDS011;11909;52.516;13.564;2022-10-18T13:44:54;13.20;;;10.02;;
23472;SDS011;11909;52.516;13.564;2022-10-18T13:51:00;14.63;;;10.50;;
23472;SDS011;11909;52.516;13.564;2022-10-18T13:53:39;10.13;;;9.05;;
23472;SDS011;11909;52.516;13.564;2022-10-18T13:56:30;12.23;;;9.65;;
23472;SDS011;11909;52.516;13.564;2022-10-18T13:59:20;13.23;;;10.10;;
23472;SDS011;11909;52.516;13.564;2022-10-18T14:01:59;11.07;;;9.85;;
23472;SDS011;11909;52.516;13.564;2022-10-18T14:04:45;12.38;;;10.15;;
23472;SDS011;11909;52.516;13.564;2022-10-18T14:07:23;10.98;;;9.82;;
23472;SDS011;11909;52.516;13.564;2022-10-18T14:09:52;13.25;;;10.07;;
23472;SDS011;11909;52.516;13.564;2022-10-18T14:12:21;15.38;;;9.82;;
23472;SDS011;11909;52.516;13.564;2022-10-18T14:14:55;13.18;;;10.98;;
23472;SDS011;11909;52.516;13.564;2022-10-18T14:17:29;11.70;;;10.00;;
23472;SDS011;11909;52.516;13.564;2022-10-18T14:20:02;12.07;;;9.18;;
23472;SDS011;11909;52.516;13.564;2022-10-18T14:22:39;13.93;;;10.27;;
23472;SDS011;11909;52.516;13.564;2022-10-18T14:25:21;12.40;;;9.85;;
23472;SDS011;11909;52.516;13.564;2022-10-18T14:30:29;12.63;;;8.40;;
23472;SDS011;11909;52.516;13.564;2022-10-18T14:32:55;12.45;;;9.35;;
23472;SDS011;11909;52.516;13.564;2022-10-18T14:35:24;11.38;;;8.68;;
23472;SDS011;11909;52.516;13.564;2022-10-18T14:37:56;11.55;;;8.98;;
23472;SDS011;11909;52.516;13.564;2022-10-18T14:40:31;11.40;;;8.90;;
23472;SDS011;11909;52.516;13.564;2022-10-18T14:43:03;13.13;;;9.10;;
23472;SDS011;11909;52.516;13.564;2022-10-18T14:45:33;12.45;;;9.20;;
23472;SDS011;11909;52.516;13.564;2022-10-18T14:48:07;14.48;;;9.02;;
23472;SDS011;11909;52.516;13.564;2022-10-18T14:50:39;12.65;;;8.82;;
23472;SDS011;11909;52.516;13.564;2022-10-18T14:53:12;15.65;;;9.43;;
23472;SDS011;11909;52.516;13.564;2022-10-18T14:55:42;12.25;;;9.70;;
23472;SDS011;11909;52.516;13.564;2022-10-18T14:58:18;13.00;;;9.60;;
23472;SDS011;11909;52.516;13.564;2022-10-18T15:00:47;14.32;;;10.57;;
23472;SDS011;11909;52.516;13.564;2022-10-18T15:03:14;18.52;;;11.70;;
23472;SDS011;11909;52.516;13.564;2022-10-18T15:05:52;16.02;;;10.02;;